createdAt,value
2022-10-22T00:01:06.428Z,14.15
2022-10-22T00:03:34.343Z,12.13
2022-10-22T00:06:02.799Z,13.15
2022-10-22T00:08:31.279Z,13.57
2022-10-22T00:10:59.612Z,12.68
2022-10-22T00:13:29.126Z,12.35
2022-10-22T00:15:57.162Z,13.02
2022-10-22T00:18:25.680Z,15.07
2022-10-22T00:20:53.476Z,14.77
2022-10-22T00:23:21.490Z,13.80
2022-10-22T00:25:49.523Z,14.32
2022-10-22T00:28:17.561Z,12.65
2022-10-22T00:30:47.175Z,14.10
2022-10-22T00:33:17.228Z,17.50
2022-10-22T00:35:45.157Z,14.45
2022-10-22T00:38:13.414Z,17.45
2022-10-22T00:40:41.488Z,15.75
2022-10-22T00:43:12.633Z,13.63
2022-10-22T00:45:41.290Z,16.10
2022-10-22T00:48:12.907Z,13.30
2022-10-22T00:50:45.207Z,14.05
2022-10-22T00:53:16.136Z,13.20
2022-10-22T00:55:46.219Z,15.25
2022-10-22T00:58:15.833Z,14.73
2022-10-22T01:00:44.363Z,14.52
2022-10-22T01:03:14.370Z,15.73
2022-10-22T01:05:45.549Z,14.32
2022-10-22T01:08:21.478Z,13.30
2022-10-22T01:10:59.448Z,13.20
2022-10-22T01:13:37.171Z,13.10
2022-10-22T01:16:11.821Z,15.52
2022-10-22T01:18:48.782Z,20.13
2022-10-22T01:21:26.854Z,20.70
2022-10-22T01:24:21.174Z,17.57
2022-10-22T01:27:23.677Z,14.80
2022-10-22T01:29:55.057Z,14.05
2022-10-22T01:32:26.768Z,12.93
2022-10-22T01:34:59.928Z,18.63
2022-10-22T01:37:32.642Z,18.23
2022-10-22T01:40:03.020Z,17.70
2022-10-22T01:42:30.936Z,21.48
2022-10-22T01:45:00.364Z,17.17
2022-10-22T01:47:42.582Z,16.70
2022-10-22T01:50:26.948Z,16.90
2022-10-22T01:53:15.436Z,17.17
2022-10-22T01:55:55.055Z,16.52
2022-10-22T01:58:36.091Z,14.20
2022-10-22T02:01:10.982Z,17.73
2022-10-22T02:03:43.338Z,14.60
2022-10-22T02:06:18.288Z,15.57
2022-10-22T02:08:47.244Z,13.10
2022-10-22T02:11:19.816Z,13.80
2022-10-22T02:13:50.702Z,12.90
2022-10-22T02:16:24.627Z,14.10
2022-10-22T02:18:55.892Z,14.25
2022-10-22T02:21:24.216Z,13.65
2022-10-22T02:23:52.104Z,14.75
2022-10-22T02:26:25.689Z,11.85
2022-10-22T02:29:01.014Z,13.53
2022-10-22T02:31:33.566Z,12.50
2022-10-22T02:34:08.266Z,13.43
2022-10-22T02:36:37.635Z,15.13
2022-10-22T02:39:06.910Z,14.32
2022-10-22T02:41:35.554Z,13.63
2022-10-22T02:44:04.044Z,12.60
2022-10-22T02:46:33.627Z,16.05
2022-10-22T02:49:01.458Z,13.95
2022-10-22T02:51:29.489Z,12.77
2022-10-22T02:53:57.357Z,13.37
2022-10-22T02:56:25.198Z,15.68
2022-10-22T02:58:52.929Z,15.40
2022-10-22T03:01:21.058Z,17.45
2022-10-22T03:03:51.038Z,14.15
2022-10-22T03:06:19.095Z,13.90
2022-10-22T03:08:47.236Z,14.60
2022-10-22T03:11:15.526Z,15.10
2022-10-22T03:13:43.784Z,16.70
2022-10-22T03:16:11.815Z,14.52
2022-10-22T03:18:39.425Z,14.07
2022-10-22T03:21:13.871Z,15.95
2022-10-22T03:23:43.608Z,12.77
2022-10-22T03:26:14.553Z,12.95
2022-10-22T03:28:44.041Z,18.35
2022-10-22T03:31:12.014Z,17.33
2022-10-22T03:33:40.016Z,17.20
2022-10-22T03:36:10.862Z,17.90
2022-10-22T03:38:41.134Z,17.77
2022-10-22T03:41:09.520Z,16.55
2022-10-22T03:43:40.831Z,16.33
2022-10-22T03:46:08.945Z,15.45
2022-10-22T03:48:37.123Z,13.82
2022-10-22T03:51:06.048Z,14.32
2022-10-22T03:53:37.369Z,14.02
2022-10-22T03:56:09.484Z,22.30
2022-10-22T03:58:37.404Z,17.52
2022-10-22T04:01:09.774Z,18.40
2022-10-22T04:03:38.143Z,16.13
2022-10-22T04:06:08.566Z,15.43
2022-10-22T04:08:43.329Z,16.73
2022-10-22T04:11:11.918Z,16.52
2022-10-22T04:13:40.171Z,15.90
2022-10-22T04:16:09.800Z,15.98
2022-10-22T04:18:38.456Z,15.45
2022-10-22T04:21:09.162Z,14.93
2022-10-22T04:23:39.284Z,14.93
2022-10-22T04:26:08.817Z,15.07
2022-10-22T04:28:36.861Z,14.48
2022-10-22T04:31:09.805Z,15.40
2022-10-22T04:33:37.836Z,14.97
2022-10-22T04:36:11.454Z,15.07
2022-10-22T04:38:41.023Z,16.60
2022-10-22T04:41:13.665Z,15.13
2022-10-22T04:43:41.949Z,14.20
2022-10-22T04:46:11.042Z,15.00
2022-10-22T04:48:39.961Z,17.63
2022-10-22T04:51:09.366Z,14.85
2022-10-22T04:53:37.288Z,14.75
2022-10-22T04:56:12.084Z,13.07
2022-10-22T04:58:40.653Z,13.97
2022-10-22T05:01:14.211Z,15.07
2022-10-22T05:03:42.720Z,14.45
2022-10-22T05:06:10.902Z,13.50
2022-10-22T05:08:39.323Z,14.88
2022-10-22T05:11:20.401Z,13.67
2022-10-22T05:13:48.336Z,13.75
2022-10-22T05:16:17.386Z,12.38
2022-10-22T05:18:46.972Z,13.32
2022-10-22T05:21:16.917Z,15.25
2022-10-22T05:23:45.743Z,14.83
2022-10-22T05:26:16.912Z,14.40
2022-10-22T05:28:44.974Z,15.23
2022-10-22T05:31:14.819Z,14.93
2022-10-22T05:33:43.198Z,14.48
2022-10-22T05:36:14.639Z,14.47
2022-10-22T05:38:42.323Z,14.82
2022-10-22T05:41:12.394Z,16.60
2022-10-22T05:43:42.144Z,14.52
2022-10-22T05:46:12.196Z,15.27
2022-10-22T05:48:40.496Z,16.57
2022-10-22T05:51:10.376Z,15.40
2022-10-22T05:53:39.354Z,14.82
2022-10-22T05:56:09.111Z,18.13
2022-10-22T05:58:38.071Z,12.55
2022-10-22T06:01:09.720Z,12.93
2022-10-22T06:03:37.724Z,11.98
2022-10-22T06:06:13.623Z,12.50
2022-10-22T06:08:41.502Z,13.07
2022-10-22T06:11:09.417Z,12.68
2022-10-22T06:13:37.285Z,14.03
2022-10-22T06:16:05.626Z,12.48
2022-10-22T06:18:34.992Z,13.85
2022-10-22T06:21:08.917Z,13.18
2022-10-22T06:23:37.813Z,16.73
2022-10-22T06:26:07.011Z,17.17
2022-10-22T06:28:35.618Z,17.95
2022-10-22T06:31:04.943Z,18.27
2022-10-22T06:33:42.245Z,19.23
2022-10-22T06:36:12.331Z,18.33
2022-10-22T06:38:40.439Z,21.43
2022-10-22T06:41:11.480Z,16.40
2022-10-22T06:43:39.831Z,15.52
2022-10-22T06:46:14.733Z,14.40
2022-10-22T06:48:50.500Z,16.00
2022-10-22T06:51:18.630Z,17.53
2022-10-22T06:53:46.339Z,16.83
2022-10-22T06:56:17.178Z,15.10
2022-10-22T06:58:45.307Z,14.48
2022-10-22T07:01:15.181Z,15.43
2022-10-22T07:03:43.839Z,17.77
2022-10-22T07:06:15.681Z,19.63
2022-10-22T07:08:44.732Z,19.33
2022-10-22T07:11:18.626Z,20.92
2022-10-22T07:13:47.601Z,18.58
2022-10-22T07:16:16.229Z,24.70
2022-10-22T07:18:46.764Z,24.63
2022-10-22T07:21:18.527Z,28.52
2022-10-22T07:23:47.486Z,32.58
2022-10-22T07:26:17.784Z,25.20
2022-10-22T07:28:45.639Z,22.50
2022-10-22T07:31:15.310Z,19.77
2022-10-22T07:33:45.561Z,17.85
2022-10-22T07:36:18.416Z,22.48
2022-10-22T07:38:47.409Z,29.15
2022-10-22T07:41:16.590Z,29.50
2022-10-22T07:43:44.682Z,24.08
2022-10-22T07:46:12.744Z,25.08
2022-10-22T07:48:40.447Z,24.35
2022-10-22T07:51:09.364Z,21.52
2022-10-22T07:53:38.916Z,19.00
2022-10-22T07:56:07.594Z,18.17
2022-10-22T07:58:35.801Z,21.02
2022-10-22T08:01:06.702Z,24.80
2022-10-22T08:03:35.492Z,62.45
2022-10-22T08:06:03.964Z,38.57
2022-10-22T08:08:32.046Z,31.25
2022-10-22T08:11:03.911Z,22.85
2022-10-22T08:13:32.149Z,20.88
2022-10-22T08:16:01.482Z,19.50
2022-10-22T08:18:30.439Z,18.77
2022-10-22T08:20:58.606Z,18.08
2022-10-22T08:23:28.678Z,20.30
2022-10-22T08:25:57.271Z,20.05
2022-10-22T08:28:28.498Z,14.48
2022-10-22T08:30:57.537Z,12.80
2022-10-22T08:33:25.735Z,11.93
2022-10-22T08:35:54.414Z,9.35
2022-10-22T08:38:29.689Z,8.80
2022-10-22T08:41:05.244Z,7.25
2022-10-22T08:44:10.400Z,8.17
2022-10-22T08:47:05.553Z,4.03
2022-10-22T08:49:39.847Z,3.35
2022-10-22T08:52:13.811Z,2.70
2022-10-22T08:54:51.213Z,1.95
2022-10-22T08:57:39.746Z,1.43
2022-10-22T09:00:15.440Z,1.60
2022-10-22T09:02:58.193Z,2.80
2022-10-22T09:05:37.670Z,5.20
2022-10-22T09:08:06.261Z,2.08
2022-10-22T09:10:38.300Z,1.57
2022-10-22T09:13:06.373Z,2.78
2022-10-22T09:15:35.735Z,2.00
2022-10-22T09:18:24.655Z,2.20
2022-10-22T09:20:58.179Z,2.53
2022-10-22T09:23:34.664Z,3.30
2022-10-22T09:26:02.615Z,1.50
2022-10-22T09:28:30.520Z,1.77
2022-10-22T09:30:59.630Z,1.98
2022-10-22T09:33:31.018Z,3.60
2022-10-22T09:36:03.652Z,3.20
2022-10-22T09:38:33.519Z,3.90
2022-10-22T09:41:04.066Z,2.33
2022-10-22T09:43:33.065Z,2.22
2022-10-22T09:46:03.687Z,2.03
2022-10-22T09:48:36.563Z,1.93
2022-10-22T09:51:08.464Z,2.10
2022-10-22T09:53:43.266Z,2.78
2022-10-22T09:56:18.599Z,1.50
2022-10-22T09:58:49.502Z,1.33
2022-10-22T10:01:21.651Z,1.77
2022-10-22T10:03:50.612Z,1.52
2022-10-22T10:06:23.415Z,1.10
2022-10-22T10:08:51.790Z,1.90
2022-10-22T10:11:29.564Z,3.38
2022-10-22T10:14:08.892Z,3.50
2022-10-22T10:16:46.119Z,1.90
2022-10-22T10:19:28.679Z,2.15
2022-10-22T10:22:05.984Z,1.73
2022-10-22T10:24:44.053Z,0.68
2022-10-22T10:27:19.482Z,0.50
2022-10-22T10:29:56.633Z,2.20
2022-10-22T10:32:38.769Z,1.65
2022-10-22T10:35:22.084Z,1.60
2022-10-22T10:38:05.548Z,1.17
2022-10-22T10:40:40.864Z,1.10
2022-10-22T10:43:14.795Z,2.03
2022-10-22T10:45:55.693Z,1.15
2022-10-22T10:48:44.735Z,2.97
2022-10-22T10:51:30.009Z,2.55
2022-10-22T10:54:14.761Z,1.50
2022-10-22T10:56:46.207Z,2.20
2022-10-22T10:59:19.740Z,1.45
2022-10-22T11:01:58.384Z,2.67
2022-10-22T11:04:53.977Z,2.10
2022-10-22T11:07:34.629Z,0.83
2022-10-22T11:10:09.979Z,2.25
2022-10-22T11:12:42.576Z,2.08
2022-10-22T11:15:22.715Z,1.90
2022-10-22T11:17:50.869Z,0.55
2022-10-22T11:20:23.174Z,2.67
2022-10-22T11:23:18.206Z,1.98
2022-10-22T11:25:47.435Z,2.83
2022-10-22T11:28:18.554Z,2.30
2022-10-22T11:30:50.985Z,3.03
2022-10-22T11:33:22.954Z,3.90
2022-10-22T11:35:54.090Z,2.00
2022-10-22T11:38:31.640Z,2.75
2022-10-22T11:41:03.748Z,2.08
2022-10-22T11:43:35.190Z,5.10
2022-10-22T11:46:10.665Z,1.87
2022-10-22T11:48:39.643Z,1.88
2022-10-22T11:51:32.816Z,3.63
2022-10-22T11:54:03.703Z,3.10
2022-10-22T11:56:39.126Z,2.58
2022-10-22T11:59:39.653Z,1.10
2022-10-22T12:02:30.882Z,2.33
2022-10-22T12:05:20.647Z,2.80
2022-10-22T12:07:57.284Z,3.75
2022-10-22T12:10:28.827Z,2.33
2022-10-22T12:12:59.164Z,1.37
2022-10-22T12:15:28.576Z,3.60
2022-10-22T12:18:02.485Z,2.50
2022-10-22T12:20:30.892Z,2.05
2022-10-22T12:23:01.073Z,1.98
2022-10-22T12:25:35.768Z,1.70
2022-10-22T12:28:03.863Z,2.72
2022-10-22T12:30:34.840Z,4.53
2022-10-22T12:33:04.207Z,2.38
2022-10-22T12:35:34.154Z,2.00
2022-10-22T12:38:06.438Z,1.90
2022-10-22T12:40:36.287Z,2.50
2022-10-22T12:43:12.313Z,4.50
2022-10-22T12:45:40.885Z,4.43
2022-10-22T12:48:17.042Z,9.85
2022-10-22T12:50:48.040Z,9.47
2022-10-22T12:53:20.162Z,6.05
2022-10-22T12:55:51.056Z,1.95
2022-10-22T12:58:21.424Z,3.17
2022-10-22T13:00:50.130Z,0.80
2022-10-22T13:03:28.123Z,3.73
2022-10-22T13:05:56.319Z,1.10
2022-10-22T13:08:29.178Z,3.63
2022-10-22T13:10:57.032Z,2.67
2022-10-22T13:13:35.942Z,8.63
2022-10-22T13:16:19.893Z,3.50
2022-10-22T13:18:48.662Z,1.50
2022-10-22T13:21:29.295Z,3.50
2022-10-22T13:24:00.686Z,2.15
2022-10-22T13:26:34.549Z,2.60
2022-10-22T13:29:03.825Z,1.17
2022-10-22T13:31:33.804Z,2.08
2022-10-22T13:34:09.706Z,3.33
2022-10-22T13:36:40.070Z,2.88
2022-10-22T13:39:14.616Z,3.78
2022-10-22T13:41:42.413Z,4.13
2022-10-22T13:44:10.281Z,2.53
2022-10-22T13:46:42.957Z,2.33
2022-10-22T13:49:16.351Z,4.45
2022-10-22T13:51:46.887Z,3.78
2022-10-22T13:54:19.669Z,3.60
2022-10-22T13:56:48.522Z,1.58
2022-10-22T13:59:19.750Z,0.98
2022-10-22T14:01:50.601Z,1.40
2022-10-22T14:04:19.391Z,3.05
2022-10-22T14:06:47.284Z,1.83
2022-10-22T14:09:17.978Z,1.75
2022-10-22T14:11:46.035Z,2.03
2022-10-22T14:14:17.178Z,0.60
2022-10-22T14:16:45.663Z,1.67
2022-10-22T14:19:17.882Z,1.87
2022-10-22T14:21:45.917Z,1.45
2022-10-22T14:24:13.725Z,4.10
2022-10-22T14:26:43.262Z,1.27
2022-10-22T14:29:11.738Z,1.20
2022-10-22T14:34:15.566Z,1.73
2022-10-22T14:36:44.846Z,0.95
2022-10-22T14:39:13.107Z,1.63
2022-10-22T14:41:45.484Z,3.85
2022-10-22T14:44:14.902Z,3.60
2022-10-22T14:46:46.410Z,1.75
2022-10-22T14:49:14.677Z,2.13
2022-10-22T14:51:43.347Z,3.92
2022-10-22T14:54:11.412Z,5.50
2022-10-22T14:56:41.389Z,4.20
2022-10-22T14:59:11.006Z,3.75
2022-10-22T15:01:42.225Z,2.53
2022-10-22T15:04:11.095Z,4.05
2022-10-22T15:06:39.205Z,2.13
2022-10-22T15:09:07.178Z,2.53
2022-10-22T15:11:35.249Z,2.85
2022-10-22T15:14:05.563Z,1.73
2022-10-22T15:16:35.387Z,3.60
2022-10-22T15:19:02.967Z,3.28
2022-10-22T15:21:30.828Z,3.53
2022-10-22T15:23:58.682Z,2.45
2022-10-22T15:26:26.693Z,2.13
2022-10-22T15:28:54.708Z,2.67
2022-10-22T15:31:44.384Z,2.80
2022-10-22T15:34:12.617Z,3.10
2022-10-22T15:36:40.958Z,3.63
2022-10-22T15:39:10.826Z,4.80
2022-10-22T15:41:39.270Z,2.83
2022-10-22T15:44:08.816Z,1.77
2022-10-22T15:46:36.754Z,2.50
2022-10-22T15:49:05.752Z,2.75
2022-10-22T15:51:33.609Z,1.92
2022-10-22T15:54:03.551Z,1.67
2022-10-22T15:56:34.886Z,4.15
2022-10-22T15:59:06.462Z,4.33
2022-10-22T16:01:36.224Z,5.10
2022-10-22T16:04:06.764Z,6.28
2022-10-22T16:06:36.178Z,4.90
2022-10-22T16:09:06.987Z,4.72
2022-10-22T16:11:35.371Z,4.20
2022-10-22T16:14:03.321Z,4.90
2022-10-22T16:16:33.185Z,4.55
2022-10-22T16:19:01.645Z,7.05
2022-10-22T16:21:30.913Z,7.95
2022-10-22T16:24:05.992Z,8.10
2022-10-22T16:26:35.056Z,10.35
2022-10-22T16:29:03.464Z,10.55
2022-10-22T16:31:31.333Z,22.30
2022-10-22T16:34:00.049Z,17.02
2022-10-22T16:36:27.897Z,13.27
2022-10-22T16:38:57.831Z,11.30
2022-10-22T16:41:33.838Z,10.48
2022-10-22T16:44:03.527Z,9.60
2022-10-22T16:46:33.313Z,8.23
2022-10-22T16:49:01.388Z,8.87
2022-10-22T16:51:30.324Z,12.43
2022-10-22T16:53:59.980Z,11.48
2022-10-22T16:56:28.510Z,15.40
2022-10-22T16:58:58.375Z,19.08
2022-10-22T17:01:29.264Z,17.97
2022-10-22T17:03:57.734Z,20.48
2022-10-22T17:06:26.409Z,20.30
2022-10-22T17:08:54.697Z,19.90
2022-10-22T17:11:25.703Z,17.35
2022-10-22T17:13:55.318Z,15.67
2022-10-22T17:16:25.453Z,13.70
2022-10-22T17:18:54.320Z,15.00
2022-10-22T17:21:23.643Z,24.90
2022-10-22T17:23:56.547Z,32.40
2022-10-22T17:26:29.919Z,38.03
2022-10-22T17:28:58.183Z,35.38
2022-10-22T17:31:27.756Z,33.20
2022-10-22T17:33:57.990Z,27.35
2022-10-22T17:36:28.399Z,23.25
2022-10-22T17:39:01.571Z,18.57
2022-10-22T17:41:32.681Z,15.25
2022-10-22T17:44:03.234Z,14.90
2022-10-22T17:46:33.217Z,13.90
2022-10-22T17:49:03.269Z,21.70
2022-10-22T17:51:32.089Z,22.37
2022-10-22T17:54:05.951Z,17.63
2022-10-22T17:56:40.082Z,18.10
2022-10-22T17:59:08.927Z,24.73
2022-10-22T18:01:43.245Z,22.20
2022-10-22T18:04:15.494Z,23.50
2022-10-22T18:06:43.738Z,21.73
2022-10-22T18:09:17.289Z,24.48
2022-10-22T18:11:48.285Z,22.02
2022-10-22T18:14:18.538Z,25.25
2022-10-22T18:16:47.632Z,23.17
2022-10-22T18:19:17.953Z,19.85
2022-10-22T18:21:46.111Z,22.63
2022-10-22T18:24:15.754Z,24.70
2022-10-22T18:26:45.072Z,24.23
2022-10-22T18:29:18.156Z,24.67
2022-10-22T18:31:47.463Z,23.05
2022-10-22T18:34:20.258Z,20.17
2022-10-22T18:36:51.187Z,24.75
2022-10-22T18:39:19.490Z,23.38
2022-10-22T18:41:47.629Z,19.70
2022-10-22T18:44:17.210Z,25.33
2022-10-22T18:46:45.096Z,22.10
2022-10-22T18:49:18.349Z,21.90
2022-10-22T18:51:48.664Z,29.67
2022-10-22T18:54:23.116Z,29.17
2022-10-22T18:56:53.245Z,26.02
2022-10-22T18:59:26.634Z,18.65
2022-10-22T19:01:57.689Z,18.95
2022-10-22T19:04:27.692Z,18.60
2022-10-22T19:06:55.727Z,16.97
2022-10-22T19:09:28.823Z,15.52
2022-10-22T19:11:59.213Z,12.95
2022-10-22T19:14:30.321Z,14.05
2022-10-22T19:16:59.470Z,13.80
2022-10-22T19:19:28.103Z,11.57
2022-10-22T19:21:59.456Z,14.52
2022-10-22T19:24:29.672Z,13.88
2022-10-22T19:26:57.680Z,11.32
2022-10-22T19:29:25.959Z,12.88
2022-10-22T19:31:55.769Z,12.97
2022-10-22T19:34:24.451Z,12.50
2022-10-22T19:36:52.831Z,14.73
2022-10-22T19:39:21.286Z,28.33
2022-10-22T19:41:49.368Z,33.45
2022-10-22T19:44:18.045Z,25.13
2022-10-22T19:46:46.251Z,29.65
2022-10-22T19:49:19.112Z,26.25
2022-10-22T19:51:50.404Z,25.38
2022-10-22T19:54:20.425Z,25.08
2022-10-22T19:56:49.531Z,15.60
2022-10-22T19:59:20.607Z,16.15
2022-10-22T20:01:48.568Z,14.15
2022-10-22T20:04:19.134Z,17.60
2022-10-22T20:06:50.083Z,18.58
2022-10-22T20:09:18.226Z,23.40
2022-10-22T20:11:46.257Z,22.58
2022-10-22T20:14:14.662Z,20.92
2022-10-22T20:16:43.049Z,18.23
2022-10-22T20:19:13.521Z,19.05
2022-10-22T20:21:43.877Z,18.77
2022-10-22T20:24:12.129Z,17.88
2022-10-22T20:26:40.284Z,16.13
2022-10-22T20:29:09.656Z,15.65
2022-10-22T20:31:37.257Z,15.00
2022-10-22T20:34:05.790Z,14.97
2022-10-22T20:36:34.329Z,14.35
2022-10-22T20:39:06.423Z,14.43
2022-10-22T20:41:35.913Z,15.38
2022-10-22T20:44:04.018Z,12.57
2022-10-22T20:46:32.944Z,18.83
2022-10-22T20:49:03.066Z,14.25
2022-10-22T20:51:31.016Z,12.40
2022-10-22T20:53:59.065Z,12.32
2022-10-22T20:56:29.391Z,11.98
2022-10-22T20:59:04.482Z,13.60
2022-10-22T21:01:34.949Z,12.60
2022-10-22T21:04:03.855Z,12.68
2022-10-22T21:06:31.956Z,13.43
2022-10-22T21:08:59.880Z,15.48
2022-10-22T21:11:29.308Z,12.90
2022-10-22T21:13:58.114Z,14.88
2022-10-22T21:16:26.358Z,27.00
2022-10-22T21:18:54.451Z,36.60
2022-10-22T21:21:22.623Z,25.92
2022-10-22T21:23:54.095Z,15.70
2022-10-22T21:26:22.874Z,15.75
2022-10-22T21:28:52.388Z,14.85
2022-10-22T21:31:22.149Z,16.00
2022-10-22T21:33:51.555Z,18.70
2022-10-22T21:36:22.979Z,15.43
2022-10-22T21:38:51.620Z,13.88
2022-10-22T21:41:21.248Z,12.82
2022-10-22T21:43:49.288Z,15.32
2022-10-22T21:46:20.504Z,12.48
2022-10-22T21:48:49.176Z,10.30
2022-10-22T21:51:19.328Z,11.35
2022-10-22T21:53:47.784Z,9.65
2022-10-22T21:56:18.063Z,8.23
2022-10-22T21:58:45.957Z,10.05
2022-10-22T22:01:14.806Z,9.43
2022-10-22T22:03:45.301Z,8.85
2022-10-22T22:06:13.749Z,8.63
2022-10-22T22:08:42.494Z,11.70
2022-10-22T22:11:14.346Z,9.77
2022-10-22T22:13:42.423Z,9.60
2022-10-22T22:16:16.136Z,13.65
2022-10-22T22:18:48.109Z,11.15
2022-10-22T22:21:24.935Z,10.18
2022-10-22T22:23:53.173Z,12.38
2022-10-22T22:26:25.488Z,11.53
2022-10-22T22:28:56.149Z,10.95
2022-10-22T22:31:26.413Z,13.18
2022-10-22T22:34:01.488Z,11.63
2022-10-22T22:36:34.453Z,9.90
2022-10-22T22:39:02.503Z,10.70
2022-10-22T22:41:30.695Z,9.45
2022-10-22T22:43:58.618Z,11.55
2022-10-22T22:46:26.968Z,9.35
2022-10-22T22:48:55.168Z,10.55
2022-10-22T22:51:24.538Z,12.33
2022-10-22T22:53:52.716Z,8.30
2022-10-22T22:56:22.487Z,9.63
2022-10-22T22:58:50.581Z,8.77
2022-10-22T23:01:22.386Z,9.35
2022-10-22T23:03:55.026Z,8.33
2022-10-22T23:06:25.564Z,9.07
2022-10-22T23:08:54.674Z,9.27
2022-10-22T23:11:25.253Z,7.85
2022-10-22T23:13:54.340Z,9.98
2022-10-22T23:16:24.417Z,8.43
2022-10-22T23:18:56.549Z,8.38
2022-10-22T23:21:28.168Z,10.32
2022-10-22T23:23:57.858Z,11.95
2022-10-22T23:26:29.358Z,14.65
2022-10-22T23:29:01.692Z,10.90
2022-10-22T23:31:29.796Z,9.52
2022-10-22T23:34:00.156Z,11.73
2022-10-22T23:36:29.651Z,12.80
2022-10-22T23:38:57.621Z,12.15
2022-10-22T23:41:25.636Z,11.00
2022-10-22T23:43:53.313Z,14.73
2022-10-22T23:46:21.396Z,12.80
2022-10-22T23:48:49.725Z,18.20
2022-10-22T23:51:18.492Z,16.13
2022-10-22T23:53:48.142Z,10.67
2022-10-22T23:56:18.530Z,12.45
2022-10-22T23:58:46.694Z,11.00
